Time;durP1;ratioP1;P1;durP2;ratioP2;P2;SDS_P1;SDS_P2;PMS_P1;PMS_P2;Temp;Humidity;BMP_temperature;BMP_pressure;BME280_temperature;BME280_humidity;BME280_pressure;Samples;Min_cycle;Max_cycle;Signal;HPM_P1;HPM_P2
2023/06/05 00:00:42;;;;;;;3.90;1.27;;;22.10;86.60;;;;;;6167517;23;1113327;-82
2023/06/05 00:03:08;;;;;;;3.05;1.60;;;22.00;86.70;;;;;;6216963;23;20008;-81
2023/06/05 00:05:34;;;;;;;4.22;1.20;;;21.80;87.70;;;;;;6215275;23;20004;-81
2023/06/05 00:08:00;;;;;;;3.60;1.00;;;21.60;88.10;;;;;;6217031;23;20334;-78
2023/06/05 00:10:25;;;;;;;4.32;1.20;;;21.50;88.40;;;;;;6216605;23;20076;-79
2023/06/05 00:12:51;;;;;;;2.53;0.93;;;21.40;88.60;;;;;;6189866;23;20441;-78
2023/06/05 00:15:17;;;;;;;1.92;1.05;;;21.30;88.70;;;;;;6215603;23;20079;-78
2023/06/05 00:17:44;;;;;;;2.83;0.93;;;21.30;89.10;;;;;;6216951;23;19996;-76
2023/06/05 00:20:10;;;;;;;2.88;1.27;;;21.20;89.50;;;;;;6188515;23;20044;-77
2023/06/05 00:22:36;;;;;;;4.22;1.38;;;21.10;89.90;;;;;;6216522;23;20442;-77
2023/06/05 00:25:02;;;;;;;1.48;1.00;;;21.00;90.10;;;;;;6215922;23;20008;-77
2023/06/05 00:27:28;;;;;;;2.22;1.15;;;20.90;90.20;;;;;;6216604;23;20027;-77
2023/06/05 00:29:54;;;;;;;3.22;1.60;;;20.90;90.40;;;;;;6215882;23;20418;-77
2023/06/05 00:32:19;;;;;;;3.20;1.33;;;20.80;90.40;;;;;;6215084;23;20016;-76
2023/06/05 00:34:46;;;;;;;2.47;1.23;;;20.80;90.60;;;;;;6214355;23;20000;-78
2023/06/05 00:37:15;;;;;;;2.63;1.48;;;20.60;90.70;;;;;;6215488;23;19997;-78
2023/06/05 00:39:41;;;;;;;4.78;1.45;;;20.50;91.00;;;;;;6215940;23;20004;-78
2023/06/05 00:42:08;;;;;;;2.55;1.02;;;20.50;90.90;;;;;;6216068;23;20378;-77
2023/06/05 00:44:34;;;;;;;3.55;1.30;;;20.60;91.00;;;;;;6189072;23;20005;-77
2023/06/05 00:47:01;;;;;;;2.20;1.25;;;20.70;91.40;;;;;;6216791;23;20478;-78
2023/06/05 00:49:27;;;;;;;3.88;1.15;;;20.70;91.10;;;;;;6215423;23;20024;-78
2023/06/05 00:51:53;;;;;;;4.40;1.45;;;20.70;91.10;;;;;;6215981;23;20001;-78
2023/06/05 00:54:20;;;;;;;2.40;1.00;;;20.80;91.20;;;;;;6189231;23;20058;-77
2023/06/05 00:56:46;;;;;;;2.47;1.17;;;20.80;91.10;;;;;;6216167;23;20478;-77
2023/06/05 00:59:13;;;;;;;1.75;1.15;;;20.80;91.30;;;;;;6215883;23;20000;-78
2023/06/05 01:01:40;;;;;;;1.92;0.90;;;20.70;91.20;;;;;;6215953;23;20066;-77
2023/06/05 01:04:06;;;;;;;5.18;1.20;;;20.70;91.30;;;;;;6215366;23;20095;-77
2023/06/05 01:06:33;;;;;;;3.05;1.30;;;20.60;91.30;;;;;;6215846;23;20462;-77
2023/06/05 01:09:00;;;;;;;1.50;1.10;;;20.60;91.40;;;;;;6216164;23;20048;-77
2023/06/05 01:11:28;;;;;;;1.88;1.17;;;20.50;91.50;;;;;;6215508;23;20000;-77
2023/06/05 01:14:01;;;;;;;1.55;0.90;;;20.50;91.70;;;;;;6216184;23;20083;-78
2023/06/05 01:16:30;;;;;;;2.10;1.00;;;20.50;91.70;;;;;;6215865;23;19997;-78
2023/06/05 01:19:02;;;;;;;4.95;1.10;;;20.40;91.60;;;;;;6215645;23;20075;-78
2023/06/05 01:21:29;;;;;;;2.42;1.08;;;20.50;91.80;;;;;;6216157;23;20079;-78
2023/06/05 01:23:55;;;;;;;1.98;0.90;;;20.50;91.90;;;;;;6215977;23;20619;-78
2023/06/05 01:26:30;;;;;;;2.47;1.27;;;20.50;91.90;;;;;;6215879;23;20005;-78
2023/06/05 01:28:58;;;;;;;2.53;0.90;;;20.60;91.80;;;;;;6215870;23;20032;-78
2023/06/05 01:31:26;;;;;;;2.15;1.08;;;20.70;92.00;;;;;;6216001;23;20013;-78
2023/06/05 01:34:01;;;;;;;3.20;0.90;;;20.70;91.80;;;;;;6215877;23;20146;-78
2023/06/05 01:36:29;;;;;;;1.98;1.00;;;20.70;91.70;;;;;;6215780;23;20000;-78
2023/06/05 01:38:57;;;;;;;2.22;1.17;;;20.70;91.80;;;;;;6188925;23;20012;-79
2023/06/05 01:41:25;;;;;;;1.80;0.93;;;20.80;92.10;;;;;;6215268;23;20007;-78
2023/06/05 01:43:51;;;;;;;2.90;1.10;;;20.90;91.90;;;;;;6215994;23;20087;-78
2023/06/05 01:46:21;;;;;;;2.22;1.30;;;20.90;91.80;;;;;;6216135;23;20008;-78
2023/06/05 01:48:47;;;;;;;1.63;0.90;;;21.00;92.00;;;;;;6214593;23;20027;-78
2023/06/05 01:51:13;;;;;;;2.28;1.10;;;21.10;92.10;;;;;;6214325;23;20415;-77
2023/06/05 01:53:38;;;;;;;1.52;1.25;;;21.20;92.20;;;;;;6215614;23;20007;-77
2023/06/05 01:56:06;;;;;;;2.42;1.00;;;21.10;92.00;;;;;;6215305;23;20005;-77
2023/06/05 01:58:32;;;;;;;3.88;1.58;;;21.10;91.90;;;;;;6213574;23;20007;-77
2023/06/05 02:00:58;;;;;;;4.50;1.23;;;21.00;91.70;;;;;;6215317;23;20043;-77
2023/06/05 02:03:24;;;;;;;1.83;1.23;;;21.00;91.60;;;;;;6215435;23;20032;-77
2023/06/05 02:05:51;;;;;;;1.92;1.30;;;21.00;91.60;;;;;;6215916;23;20001;-77
2023/06/05 02:08:19;;;;;;;3.83;1.48;;;21.00;91.80;;;;;;6214653;23;20082;-77
2023/06/05 02:10:48;;;;;;;2.50;1.25;;;20.90;91.60;;;;;;6187090;23;20004;-77
2023/06/05 02:13:19;;;;;;;1.35;1.20;;;20.90;91.80;;;;;;6215774;23;20087;-77
2023/06/05 02:15:45;;;;;;;;;;;20.90;91.90;;;;;;6215199;23;19997;-77
2023/06/05 02:18:12;;;;;;;1.83;1.35;;;20.90;91.90;;;;;;6214616;23;19908;-77
2023/06/05 02:20:40;;;;;;;2.15;1.08;;;20.80;92.00;;;;;;6214872;23;20437;-77
2023/06/05 02:23:06;;;;;;;2.45;1.67;;;20.80;92.00;;;;;;6187518;23;20376;-77
2023/06/05 02:25:32;;;;;;;3.22;1.40;;;20.80;92.00;;;;;;6214648;23;20011;-77
2023/06/05 02:27:58;;;;;;;2.30;1.40;;;20.70;92.10;;;;;;6215292;23;20005;-77
2023/06/05 02:30:23;;;;;;;2.72;1.45;;;20.70;92.20;;;;;;6215287;23;20013;-77
2023/06/05 02:32:56;;;;;;;3.50;1.45;;;20.70;92.40;;;;;;6214461;23;20005;-77
2023/06/05 02:35:22;;;;;;;1.58;1.40;;;20.70;92.40;;;;;;6214664;23;19997;-77
2023/06/05 02:37:47;;;;;;;2.95;2.00;;;20.70;92.50;;;;;;6215162;23;20005;-78
2023/06/05 02:40:14;;;;;;;2.30;1.25;;;20.80;92.70;;;;;;6214754;23;20076;-77
2023/06/05 02:42:40;;;;;;;2.47;1.55;;;20.70;92.60;;;;;;6214853;23;20001;-77
2023/06/05 02:45:07;;;;;;;1.80;1.40;;;20.70;92.70;;;;;;6214797;23;20031;-77
2023/06/05 02:47:33;;;;;;;2.45;1.40;;;20.70;92.60;;;;;;6215386;23;20435;-77
2023/06/05 02:50:00;;;;;;;3.40;2.30;;;20.70;92.60;;;;;;6215428;23;20043;-77
2023/06/05 02:52:27;;;;;;;6.35;2.50;;;20.70;92.80;;;;;;6215148;23;20059;-77
2023/06/05 02:54:52;;;;;;;6.47;2.47;;;20.70;92.90;;;;;;6188722;23;20031;-77
2023/06/05 02:57:18;;;;;;;4.50;2.33;;;20.60;93.00;;;;;;6215503;23;19997;-77
2023/06/05 02:59:44;;;;;;;2.20;1.50;;;20.60;93.10;;;;;;6214982;23;20353;-77
2023/06/05 03:02:11;;;;;;;2.53;1.73;;;20.50;93.30;;;;;;6214735;23;20016;-77
2023/06/05 03:04:40;;;;;;;2.17;1.98;;;20.50;93.10;;;;;;6215795;23;20090;-78
2023/06/05 03:07:09;;;;;;;3.67;2.00;;;20.60;93.20;;;;;;6214623;23;20338;-77
2023/06/05 03:09:36;;;;;;;3.58;2.53;;;20.60;93.10;;;;;;6215284;23;20001;-77
2023/06/05 03:12:01;;;;;;;3.22;2.10;;;20.50;93.20;;;;;;6213764;23;20024;-78
2023/06/05 03:14:27;;;;;;;2.42;1.70;;;20.50;93.20;;;;;;6188683;23;20008;-77
2023/06/05 03:16:53;;;;;;;3.83;2.40;;;20.40;93.10;;;;;;6215585;23;20300;-78
2023/06/05 03:19:19;;;;;;;2.25;1.35;;;20.40;93.20;;;;;;6187258;23;20001;-77
2023/06/05 03:21:45;;;;;;;2.88;1.38;;;20.40;93.10;;;;;;6214998;23;20022;-77
2023/06/05 03:24:14;;;;;;;3.35;1.70;;;20.40;93.10;;;;;;6215085;23;20410;-77
2023/06/05 03:26:43;;;;;;;4.97;2.35;;;20.50;93.20;;;;;;6214576;23;20001;-77
2023/06/05 03:29:11;;;;;;;2.83;1.70;;;20.40;93.10;;;;;;6214239;23;20001;-78
2023/06/05 03:31:37;;;;;;;1.88;1.50;;;20.40;92.90;;;;;;6215070;23;19997;-77
2023/06/05 03:34:03;;;;;;;2.38;1.70;;;20.40;93.10;;;;;;6214035;23;20005;-78
2023/06/05 03:36:30;;;;;;;1.88;1.67;;;20.40;93.00;;;;;;6216765;23;20080;-78
2023/06/05 03:38:56;;;;;;;2.67;2.00;;;20.40;93.10;;;;;;6216559;23;20011;-78
2023/06/05 03:41:23;;;;;;;2.42;1.95;;;20.40;93.10;;;;;;6216668;23;20007;-77
2023/06/05 03:43:52;;;;;;;2.92;1.90;;;20.40;92.90;;;;;;6215730;23;20000;-77
2023/06/05 03:46:18;;;;;;;4.03;1.95;;;20.40;93.00;;;;;;6216943;23;20000;-77
2023/06/05 03:48:46;;;;;;;2.70;1.55;;;20.40;93.00;;;;;;6216749;23;20028;-77
2023/06/05 03:51:11;;;;;;;3.35;1.52;;;20.40;93.10;;;;;;6216876;23;20085;-78
2023/06/05 03:53:39;;;;;;;2.67;1.65;;;20.50;93.20;;;;;;6215905;23;20020;-78
2023/06/05 03:56:06;;;;;;;1.63;1.42;;;20.50;93.20;;;;;;6217295;23;20008;-79
2023/06/05 03:58:32;;;;;;;2.95;1.80;;;20.50;93.10;;;;;;6217210;23;20407;-78
2023/06/05 04:00:58;;;;;;;3.70;1.90;;;20.50;93.10;;;;;;6215980;23;20022;-78
2023/06/05 04:03:25;;;;;;;3.20;1.98;;;20.40;93.10;;;;;;6213568;23;20008;-77
2023/06/05 04:05:51;;;;;;;3.00;2.00;;;20.50;93.10;;;;;;6216243;23;20015;-77
2023/06/05 04:08:16;;;;;;;3.28;1.80;;;20.40;93.20;;;;;;6216607;23;20319;-77
2023/06/05 04:10:42;;;;;;;3.80;1.77;;;20.50;93.30;;;;;;6216067;23;20036;-77
2023/06/05 04:13:08;;;;;;;1.95;1.67;;;20.50;93.20;;;;;;6215689;23;19996;-77
2023/06/05 04:15:33;;;;;;;2.92;1.70;;;20.50;93.10;;;;;;6213722;23;20023;-77
2023/06/05 04:17:59;;;;;;;5.70;1.98;;;20.40;93.20;;;;;;6189908;23;20297;-78
2023/06/05 04:20:25;;;;;;;4.38;2.28;;;20.40;93.20;;;;;;6212474;23;20032;-77
2023/06/05 04:22:51;;;;;;;3.28;1.60;;;20.30;93.40;;;;;;6212996;23;20008;-77
2023/06/05 04:25:17;;;;;;;2.55;1.50;;;20.30;93.50;;;;;;6215065;23;20297;-77
2023/06/05 04:27:44;;;;;;;3.17;1.73;;;20.30;93.50;;;;;;6189281;23;20427;-77
2023/06/05 04:30:12;;;;;;;5.38;1.60;;;20.30;93.80;;;;;;6215814;23;20029;-77
2023/06/05 04:32:39;;;;;;;2.22;1.75;;;20.30;94.00;;;;;;6215981;23;19997;-77
2023/06/05 04:35:06;;;;;;;3.50;2.67;;;20.30;93.80;;;;;;6216242;23;20068;-77
2023/06/05 04:37:32;;;;;;;3.00;2.20;;;20.30;94.00;;;;;;6215480;23;20007;-77
2023/06/05 04:40:09;;;;;;;5.70;2.90;;;20.20;94.20;;;;;;6214497;23;20008;-77
2023/06/05 04:42:36;;;;;;;3.58;2.30;;;20.20;94.30;;;;;;6215642;23;20015;-78
2023/06/05 04:45:22;;;;;;;4.45;2.65;;;20.10;94.40;;;;;;6215749;23;20008;-77
2023/06/05 04:47:47;;;;;;;2.83;2.22;;;20.20;94.50;;;;;;6212550;23;20012;-77
2023/06/05 04:50:27;;;;;;;3.40;2.55;;;20.10;94.50;;;;;;6214364;23;20030;-77
2023/06/05 04:52:53;;;;;;;2.78;2.20;;;20.20;94.60;;;;;;6214480;23;20076;-77
2023/06/05 04:55:19;;;;;;;4.00;2.65;;;20.20;94.40;;;;;;6214707;23;20004;-77
2023/06/05 04:57:45;;;;;;;2.85;2.47;;;20.30;94.50;;;;;;6216045;23;20027;-77
2023/06/05 05:00:12;;;;;;;3.92;2.13;;;20.40;94.40;;;;;;6214823;23;20420;-76
2023/06/05 05:02:37;;;;;;;2.78;2.53;;;20.40;94.50;;;;;;6213688;23;20012;-76
2023/06/05 05:05:04;;;;;;;2.60;2.22;;;20.50;94.50;;;;;;6214437;23;20008;-76
2023/06/05 05:07:30;;;;;;;3.42;2.45;;;20.50;94.30;;;;;;6213545;23;20039;-77
2023/06/05 05:09:56;;;;;;;5.70;2.75;;;20.60;94.30;;;;;;6188528;23;20015;-76
2023/06/05 05:12:21;;;;;;;2.30;2.10;;;20.60;94.40;;;;;;6187958;23;20038;-76
2023/06/05 05:14:47;;;;;;;3.50;2.35;;;20.60;94.40;;;;;;6215786;23;20007;-77
2023/06/05 05:17:15;;;;;;;3.55;2.15;;;20.70;94.40;;;;;;6214678;23;20001;-77
2023/06/05 05:19:41;;;;;;;4.82;3.30;;;20.80;94.30;;;;;;6215255;23;20403;-77
2023/06/05 05:22:07;;;;;;;3.25;2.60;;;20.70;94.10;;;;;;6188492;23;20015;-77
2023/06/05 05:24:32;;;;;;;3.88;3.00;;;20.60;94.20;;;;;;6188920;23;20024;-77
2023/06/05 05:26:58;;;;;;;3.30;2.30;;;20.60;94.40;;;;;;6215356;23;20007;-77
2023/06/05 05:29:24;;;;;;;3.75;2.20;;;20.50;94.30;;;;;;6215710;23;20107;-77
2023/06/05 05:31:50;;;;;;;3.15;2.80;;;20.50;94.30;;;;;;6213938;23;20023;-77
2023/06/05 05:34:16;;;;;;;2.97;2.60;;;20.60;94.40;;;;;;6215307;23;20000;-77
2023/06/05 05:36:42;;;;;;;4.93;2.85;;;20.60;94.50;;;;;;6215384;23;20001;-77
2023/06/05 05:39:08;;;;;;;5.47;2.95;;;20.60;94.50;;;;;;6214646;23;20075;-77
2023/06/05 05:41:34;;;;;;;7.72;3.88;;;20.70;94.60;;;;;;6214157;23;20059;-76
2023/06/05 05:44:00;;;;;;;3.42;2.78;;;20.70;94.50;;;;;;6215113;23;20000;-77
2023/06/05 05:46:26;;;;;;;4.45;2.50;;;20.70;94.40;;;;;;6214934;23;20075;-76
2023/06/05 05:48:51;;;;;;;3.67;2.88;;;20.70;94.50;;;;;;6215876;23;20419;-76
2023/06/05 05:51:17;;;;;;;6.03;3.25;;;20.70;94.40;;;;;;6187341;23;20030;-76
2023/06/05 05:53:43;;;;;;;3.83;2.95;;;20.70;94.50;;;;;;6215062;23;20054;-75
2023/06/05 05:56:09;;;;;;;5.78;2.97;;;20.70;94.50;;;;;;6214347;23;20055;-76
2023/06/05 05:58:34;;;;;;;4.45;3.00;;;20.80;94.50;;;;;;6215525;23;20004;-76
2023/06/05 06:01:00;;;;;;;3.25;2.72;;;20.80;94.60;;;;;;6213999;23;20451;-76
2023/06/05 06:03:29;;;;;;;5.03;2.80;;;20.90;94.60;;;;;;6189066;23;20023;-77
2023/06/05 06:05:57;;;;;;;3.97;2.78;;;20.90;94.60;;;;;;6219229;23;20011;-76
2023/06/05 06:08:22;;;;;;;2.83;2.22;;;20.90;94.30;;;;;;6188508;23;20009;-76
2023/06/05 06:10:48;;;;;;;3.88;2.80;;;20.90;94.20;;;;;;6187238;23;20030;-76
2023/06/05 06:13:14;;;;;;;3.40;2.72;;;20.90;94.20;;;;;;6213648;23;19997;-76
2023/06/05 06:15:40;;;;;;;4.40;2.65;;;20.90;94.30;;;;;;6212184;23;20061;-78
2023/06/05 06:18:06;;;;;;;2.85;2.20;;;21.00;94.40;;;;;;6216803;23;19984;-79
2023/06/05 06:20:36;;;;;;;4.28;2.70;;;21.00;94.40;;;;;;6195683;23;20009;-79
2023/06/05 06:23:05;;;;;;;4.53;2.53;;;21.00;93.90;;;;;;6196399;23;20000;-79
2023/06/05 06:25:31;;;;;;;2.67;2.45;;;21.00;94.00;;;;;;6192720;23;20036;-79
2023/06/05 06:28:00;;;;;;;3.88;2.50;;;20.90;94.00;;;;;;6213655;23;20094;-81
2023/06/05 06:30:27;;;;;;;4.80;2.45;;;20.90;94.00;;;;;;6213682;23;20011;-79
2023/06/05 06:32:57;;;;;;;5.07;3.13;;;20.90;93.90;;;;;;6213794;23;20007;-79
2023/06/05 06:35:24;;;;;;;2.67;2.47;;;20.90;94.00;;;;;;6213021;23;20001;-79
2023/06/05 06:37:54;;;;;;;2.80;2.38;;;20.90;94.00;;;;;;6214228;23;20007;-78
2023/06/05 06:40:20;;;;;;;3.70;2.65;;;20.90;93.90;;;;;;6212331;23;20029;-79
2023/06/05 06:42:46;;;;;;;2.88;2.40;;;20.90;94.00;;;;;;6185943;23;20011;-79
2023/06/05 06:45:12;;;;;;;3.05;2.65;;;21.00;94.00;;;;;;6213738;23;20005;-79
2023/06/05 06:47:38;;;;;;;4.25;2.47;;;21.00;94.00;;;;;;6213554;23;19997;-79
2023/06/05 06:50:04;;;;;;;3.25;2.40;;;21.00;94.00;;;;;;6211406;23;20008;-79
2023/06/05 06:52:30;;;;;;;4.50;3.20;;;21.00;94.20;;;;;;6214367;23;20016;-79
2023/06/05 06:54:56;;;;;;;5.25;2.95;;;21.00;94.20;;;;;;6213258;23;19997;-79
2023/06/05 06:57:22;;;;;;;3.33;2.40;;;21.00;94.10;;;;;;6213429;23;20055;-79
2023/06/05 06:59:47;;;;;;;5.47;2.63;;;21.00;94.00;;;;;;6211834;23;20005;-78
2023/06/05 07:02:23;;;;;;;3.60;2.80;;;21.00;93.90;;;;;;6187412;23;20016;-83
2023/06/05 07:04:49;;;;;;;2.95;2.38;;;21.00;94.00;;;;;;6215066;23;20012;-79
2023/06/05 07:07:16;;;;;;;4.22;2.58;;;20.90;94.00;;;;;;6215115;23;20005;-78
2023/06/05 07:09:44;;;;;;;3.42;2.47;;;21.00;94.00;;;;;;6214046;23;20005;-78
2023/06/05 07:12:11;;;;;;;4.95;2.67;;;20.90;93.90;;;;;;6216974;23;20407;-78
2023/06/05 07:14:38;;;;;;;4.45;2.30;;;20.90;93.80;;;;;;6216997;23;20370;-79
2023/06/05 07:17:04;;;;;;;3.97;2.65;;;20.90;93.70;;;;;;6187070;23;20075;-78
2023/06/05 07:19:31;;;;;;;2.90;2.22;;;20.90;93.60;;;;;;6214415;23;20004;-78
2023/06/05 07:21:57;;;;;;;2.65;2.25;;;21.00;93.60;;;;;;6216214;23;20433;-79
2023/06/05 07:24:24;;;;;;;2.63;2.20;;;20.90;93.60;;;;;;6216205;23;20280;-80
2023/06/05 07:26:55;;;;;;;3.25;2.15;;;20.90;93.70;;;;;;6214033;23;20051;-81
2023/06/05 07:29:24;;;;;;;3.05;1.98;;;20.90;93.80;;;;;;6215871;23;20319;-81
2023/06/05 07:31:54;;;;;;;3.00;2.40;;;21.00;93.90;;;;;;6215638;23;20025;-81
2023/06/05 07:34:21;;;;;;;3.35;1.92;;;21.00;93.70;;;;;;6217004;23;20059;-81
2023/06/05 07:36:49;;;;;;;2.50;1.98;;;21.00;93.80;;;;;;6216485;23;20000;-80
2023/06/05 07:39:15;;;;;;;2.30;1.90;;;21.00;93.80;;;;;;6216875;23;20024;-81
2023/06/05 07:41:41;;;;;;;3.25;2.00;;;21.10;94.00;;;;;;6217153;23;20327;-81
2023/06/05 07:44:12;;;;;;;3.90;2.50;;;21.10;93.70;;;;;;6216940;23;20012;-81
2023/06/05 07:46:40;;;;;;;5.75;2.53;;;21.10;93.70;;;;;;6216160;23;20000;-81
2023/06/05 07:49:06;;;;;;;3.67;2.15;;;21.20;93.70;;;;;;6216653;23;20028;-81
2023/06/05 07:51:36;;;;;;;3.90;2.13;;;21.20;93.50;;;;;;6215500;23;20004;-85
2023/06/05 07:54:11;;;;;;;2.30;1.88;;;21.20;93.50;;;;;;6216099;23;19997;-80
2023/06/05 07:56:38;;;;;;;7.63;2.50;;;21.30;93.40;;;;;;6215470;23;20001;-82
2023/06/05 07:59:05;;;;;;;4.22;2.30;;;21.20;93.50;;;;;;6216013;23;20433;-79
2023/06/05 08:01:36;;;;;;;8.38;3.08;;;21.20;93.40;;;;;;6215577;23;20021;-80
2023/06/05 08:04:06;;;;;;;3.63;2.53;;;21.20;93.40;;;;;;6216414;23;20007;-80
2023/06/05 08:06:32;;;;;;;2.97;2.00;;;21.20;93.50;;;;;;6189636;23;20032;-80
2023/06/05 08:08:59;;;;;;;6.22;2.15;;;21.20;93.50;;;;;;6216704;23;20005;-80
2023/06/05 08:11:26;;;;;;;2.55;2.08;;;21.20;93.60;;;;;;6189458;23;20008;-80
2023/06/05 08:13:52;;;;;;;2.95;2.35;;;21.20;93.60;;;;;;6189643;23;20005;-80
2023/06/05 08:16:17;;;;;;;5.10;2.05;;;21.30;93.60;;;;;;6215818;23;19997;-80
2023/06/05 08:18:43;;;;;;;2.60;2.35;;;21.40;93.80;;;;;;6215805;23;20115;-80
2023/06/05 08:21:09;;;;;;;2.63;1.98;;;21.50;93.70;;;;;;6215667;23;20007;-80
2023/06/05 08:23:34;;;;;;;2.58;2.03;;;21.60;93.50;;;;;;6215923;23;20411;-80
2023/06/05 08:26:01;;;;;;;3.17;2.05;;;21.60;93.50;;;;;;6216122;23;20124;-79
2023/06/05 08:28:27;;;;;;;2.20;1.95;;;21.70;93.50;;;;;;6189335;23;20009;-79
2023/06/05 08:30:53;;;;;;;3.20;2.15;;;21.80;93.10;;;;;;6216198;23;20390;-79
2023/06/05 08:33:21;;;;;;;3.80;1.98;;;21.80;93.10;;;;;;6216092;23;20001;-79
2023/06/05 08:35:47;;;;;;;2.95;1.92;;;21.80;92.80;;;;;;6188882;23;20027;-79
2023/06/05 08:38:13;;;;;;;1.77;1.67;;;21.80;92.80;;;;;;6215733;23;20415;-80
2023/06/05 08:40:39;;;;;;;2.03;1.70;;;21.90;92.90;;;;;;6215896;23;20305;-80
2023/06/05 08:43:05;;;;;;;2.15;1.60;;;21.90;92.90;;;;;;6215729;23;20005;-80
2023/06/05 08:45:32;;;;;;;2.33;1.77;;;22.00;92.80;;;;;;6215458;23;20087;-80
2023/06/05 08:48:03;;;;;;;2.60;2.00;;;22.00;92.30;;;;;;6215647;23;19996;-80
2023/06/05 08:50:30;;;;;;;3.63;1.92;;;22.00;92.70;;;;;;6215627;23;20378;-80
2023/06/05 08:53:00;;;;;;;4.65;2.15;;;22.10;92.90;;;;;;6215118;23;20001;-80
2023/06/05 08:55:27;;;;;;;2.65;1.80;;;22.20;93.00;;;;;;6215342;23;20001;-79
2023/06/05 08:57:53;;;;;;;2.22;1.77;;;22.20;92.60;;;;;;6215663;23;20001;-79
2023/06/05 09:00:22;;;;;;;1.60;1.50;;;22.30;92.40;;;;;;6189237;23;20001;-78
2023/06/05 09:02:47;;;;;;;2.03;1.73;;;22.30;92.20;;;;;;6189701;23;20013;-78
2023/06/05 09:05:17;;;;;;;1.92;1.70;;;22.40;92.00;;;;;;6189172;23;20488;-78
2023/06/05 09:07:43;;;;;;;2.33;1.80;;;22.40;91.50;;;;;;6216100;23;20008;-78
2023/06/05 09:10:26;;;;;;;3.42;1.90;;;22.40;90.90;;;;;;6215285;23;20088;-78
2023/06/05 09:12:53;;;;;;;1.85;1.42;;;22.30;91.10;;;;;;6189690;23;20076;-78
2023/06/05 09:15:33;;;;;;;1.60;1.40;;;22.40;91.10;;;;;;6216115;23;20000;-78
2023/06/05 09:18:10;;;;;;;2.17;1.90;;;22.30;91.00;;;;;;6216554;23;20003;-78
2023/06/05 09:20:38;;;;;;;2.22;1.33;;;22.40;90.60;;;;;;6215921;23;20027;-77
2023/06/05 09:23:22;;;;;;;1.52;1.15;;;22.40;90.90;;;;;;6215706;23;20241;-78
2023/06/05 09:25:48;;;;;;;1.80;1.45;;;22.40;90.70;;;;;;6212902;23;20011;-79
2023/06/05 09:28:17;;;;;;;2.55;1.40;;;22.50;90.60;;;;;;6213363;23;20004;-79
2023/06/05 09:30:57;;;;;;;1.20;1.08;;;22.50;90.20;;;;;;6214065;23;20011;-79
2023/06/05 09:33:23;;;;;;;;;;;22.70;90.30;;;;;;6215259;23;20035;-79
2023/06/05 09:36:23;;;;;;;1.83;1.10;;;22.80;89.80;;;;;;6214866;23;19904;-78
2023/06/05 09:38:50;;;;;;;3.15;1.45;;;22.90;90.00;;;;;;6135247;23;20343;-78
2023/06/05 09:41:18;;;;;;;1.35;1.00;;;22.90;88.40;;;;;;6188320;23;20382;-78
2023/06/05 09:43:45;;;;;;;1.75;1.33;;;22.90;88.20;;;;;;6188335;23;20031;-78
2023/06/05 09:46:12;;;;;;;1.50;1.10;;;22.90;88.30;;;;;;6215119;23;20008;-78
2023/06/05 09:48:49;;;;;;;0.90;0.82;;;22.90;87.70;;;;;;6215032;23;20427;-78
2023/06/05 09:51:17;;;;;;;2.70;1.20;;;22.90;88.00;;;;;;6188316;23;20051;-78
2023/06/05 09:53:49;;;;;;;1.70;1.25;;;22.90;89.40;;;;;;6214197;23;20050;-78
2023/06/05 09:56:21;;;;;;;0.90;0.77;;;23.00;89.00;;;;;;6215079;23;20008;-78
2023/06/05 09:58:51;;;;;;;1.88;1.30;;;23.10;88.80;;;;;;6214464;23;20001;-78
2023/06/05 10:01:19;;;;;;;;;;;23.20;88.20;;;;;;6215832;23;20017;-78
2023/06/05 10:03:58;;;;;;;1.90;1.15;;;23.20;87.60;;;;;;6188128;23;19935;-78
2023/06/05 10:06:28;;;;;;;1.35;0.90;;;23.20;87.30;;;;;;6214970;23;20031;-78
2023/06/05 10:08:57;;;;;;;1.65;1.20;;;23.20;86.90;;;;;;6215203;23;20168;-79
2023/06/05 10:11:25;;;;;;;1.67;1.00;;;23.20;87.10;;;;;;6214820;23;20001;-80
2023/06/05 10:13:51;;;;;;;2.33;0.85;;;23.10;87.40;;;;;;6214816;23;20481;-79
2023/06/05 10:16:18;;;;;;;1.73;1.23;;;23.10;86.90;;;;;;6188253;23;20780;-79
2023/06/05 10:18:47;;;;;;;1.38;0.82;;;23.10;86.70;;;;;;6214756;23;20300;-79
2023/06/05 10:21:16;;;;;;;1.52;1.15;;;23.00;86.90;;;;;;6215419;23;20008;-80
2023/06/05 10:24:03;;;;;;;1.63;0.80;;;23.00;87.00;;;;;;6215140;23;20032;-79
2023/06/05 10:27:08;;;;;;;0.70;0.60;;;22.90;87.10;;;;;;6186421;23;20008;-79
2023/06/05 10:29:55;;;;;;;0.95;0.90;;;22.90;87.00;;;;;;6214164;23;20004;-79
2023/06/05 10:32:57;;;;;;;1.27;0.82;;;23.00;87.00;;;;;;6187923;23;20008;-79
2023/06/05 10:35:38;;;;;;;1.60;1.10;;;23.10;86.80;;;;;;6214930;23;20016;-79
2023/06/05 10:38:18;;;;;;;1.10;0.82;;;23.20;86.90;;;;;;6214427;23;20008;-79
2023/06/05 10:40:55;;;;;;;0.93;0.80;;;23.30;86.20;;;;;;6189064;23;20042;-79
2023/06/05 10:43:43;;;;;;;1.20;1.00;;;23.30;86.20;;;;;;6215311;23;20004;-80
2023/06/05 10:46:37;;;;;;;0.82;0.80;;;23.30;87.10;;;;;;6213435;23;20304;-78
2023/06/05 10:49:17;;;;;;;1.25;1.05;;;23.30;85.80;;;;;;6214048;23;20001;-78
2023/06/05 10:51:53;;;;;;;1.20;1.00;;;23.40;86.30;;;;;;6214178;23;20004;-78
2023/06/05 10:54:22;;;;;;;2.58;1.33;;;23.50;85.80;;;;;;6214036;23;20492;-79
2023/06/05 10:57:01;;;;;;;1.00;0.90;;;23.40;84.60;;;;;;6214261;23;19997;-79
2023/06/05 10:59:31;;;;;;;1.83;1.27;;;23.50;84.80;;;;;;6187986;23;20004;-79
2023/06/05 11:02:09;;;;;;;1.90;1.33;;;23.50;85.50;;;;;;6214297;23;20103;-79
2023/06/05 11:04:46;;;;;;;1.20;1.10;;;23.50;85.60;;;;;;6214813;23;20005;-78
2023/06/05 11:07:20;;;;;;;2.50;1.20;;;23.50;85.90;;;;;;6215122;23;20075;-78
2023/06/05 11:10:04;;;;;;;1.05;0.90;;;23.60;85.50;;;;;;6187205;23;20303;-79
2023/06/05 11:12:39;;;;;;;3.53;1.30;;;23.70;85.30;;;;;;6211001;23;19996;-80
2023/06/05 11:15:14;;;;;;;1.60;1.10;;;23.70;85.80;;;;;;6214124;23;20493;-80
2023/06/05 11:17:46;;;;;;;2.10;1.33;;;23.80;86.00;;;;;;6187661;23;20035;-80
2023/06/05 11:20:24;;;;;;;1.85;1.10;;;23.70;86.40;;;;;;6214404;23;20000;-80
2023/06/05 11:22:52;;;;;;;1.30;1.20;;;23.70;86.30;;;;;;6188133;23;20009;-78
2023/06/05 11:25:19;;;;;;;1.98;1.10;;;23.70;86.80;;;;;;6214420;23;20007;-79
2023/06/05 11:27:52;;;;;;;1.85;1.13;;;23.60;86.80;;;;;;6213706;23;20482;-79
2023/06/05 11:30:20;;;;;;;2.25;1.08;;;23.60;86.90;;;;;;6213209;23;20416;-79
2023/06/05 11:32:46;;;;;;;2.03;1.48;;;23.60;87.80;;;;;;6212025;23;20009;-78
2023/06/05 11:35:12;;;;;;;1.48;1.10;;;23.70;88.10;;;;;;6212904;23;20438;-78
2023/06/05 11:37:39;;;;;;;1.52;1.40;;;23.80;87.50;;;;;;6213132;23;19997;-78
2023/06/05 11:40:09;;;;;;;2.05;1.25;;;23.80;87.60;;;;;;6212874;23;20011;-78
2023/06/05 11:42:35;;;;;;;;;;;24.00;87.30;;;;;;6213527;23;20330;-78
2023/06/05 11:45:01;;;;;;;1.50;1.00;;;24.10;86.70;;;;;;6213689;23;19999;-78
2023/06/05 11:47:29;;;;;;;2.00;1.35;;;24.20;87.10;;;;;;6214027;23;20004;-78
2023/06/05 11:50:10;;;;;;;1.77;1.33;;;24.30;87.70;;;;;;6213672;23;20012;-78
2023/06/05 11:52:37;;;;;;;2.42;2.00;;;24.30;87.20;;;;;;6213753;23;20000;-78
2023/06/05 11:55:21;;;;;;;1.50;1.25;;;24.40;85.90;;;;;;6213198;23;20000;-78
2023/06/05 11:57:48;;;;;;;1.55;1.30;;;24.40;86.90;;;;;;6212324;23;20389;-79
2023/06/05 12:00:14;;;;;;;1.83;1.10;;;24.30;86.90;;;;;;6186077;23;20442;-78
2023/06/05 12:02:43;;;;;;;1.45;1.17;;;24.30;87.20;;;;;;6182270;23;20116;-78
2023/06/05 12:05:10;;;;;;;1.67;1.48;;;24.30;87.20;;;;;;6182508;23;20033;-78
2023/06/05 12:07:37;;;;;;;1.40;1.30;;;24.40;87.70;;;;;;6156518;23;20009;-78
2023/06/05 12:10:07;;;;;;;1.63;1.38;;;24.40;87.40;;;;;;6181831;23;20025;-78
2023/06/05 12:12:34;;;;;;;1.23;1.08;;;24.40;87.30;;;;;;6181222;23;20005;-78
2023/06/05 12:15:20;;;;;;;1.33;1.17;;;24.50;87.00;;;;;;6183665;23;20005;-78
2023/06/05 12:17:56;;;;;;;1.60;1.25;;;24.70;86.60;;;;;;6184391;23;20005;-79
2023/06/05 12:20:22;;;;;;;1.63;1.25;;;24.80;87.20;;;;;;6181793;23;20016;-79
2023/06/05 12:22:49;;;;;;;1.42;1.33;;;24.90;86.00;;;;;;6158194;23;20809;-79
2023/06/05 12:25:22;;;;;;;1.42;1.30;;;25.10;85.70;;;;;;6185099;23;20009;-79
2023/06/05 12:27:52;;;;;;;1.50;1.40;;;25.40;84.80;;;;;;6184845;23;20058;-79
2023/06/05 12:30:19;;;;;;;2.60;1.75;;;25.50;84.50;;;;;;6159479;23;20085;-79
2023/06/05 12:32:45;;;;;;;1.83;1.60;;;25.50;83.00;;;;;;6186370;23;20036;-79
2023/06/05 12:35:21;;;;;;;1.92;1.80;;;25.40;82.90;;;;;;6186368;23;19997;-79
2023/06/05 12:37:48;;;;;;;3.22;1.90;;;25.40;82.70;;;;;;6186004;23;20055;-79
2023/06/05 12:40:17;;;;;;;1.80;1.70;;;25.20;82.80;;;;;;6185699;23;20012;-79
2023/06/05 12:42:43;;;;;;;7.28;2.40;;;25.10;83.50;;;;;;6186096;23;20008;-80
2023/06/05 12:45:10;;;;;;;5.28;1.85;;;25.20;84.10;;;;;;6185138;23;20005;-81
2023/06/05 12:47:37;;;;;;;2.95;1.80;;;25.30;83.70;;;;;;6158818;23;20117;-79
2023/06/05 12:50:04;;;;;;;2.13;1.55;;;25.40;83.80;;;;;;6183464;23;20005;-80
2023/06/05 12:52:33;;;;;;;3.70;1.83;;;25.40;84.30;;;;;;6182501;23;20009;-80
2023/06/05 12:54:59;;;;;;;2.63;2.05;;;25.30;83.10;;;;;;6183865;23;20001;-80